Time;durP1;ratioP1;P1;durP2;ratioP2;P2;SDS_P1;SDS_P2;PMS_P1;PMS_P2;Temp;Humidity;BMP_temperature;BMP_pressure;BME280_temperature;BME280_humidity;BME280_pressure;Samples;Min_cycle;Max_cycle;Signal;HPM_P1;HPM_P2
2022/04/25 05:00:39;;;;;;;22.77;20.77;;;10.50;97.20;;;;;;1721685;28;20189;-77
2022/04/25 05:01:30;;;;;;;23.27;21.27;;;10.50;97.20;;;;;;1721590;28;20237;-78
2022/04/25 05:02:21;;;;;;;23.20;21.10;;;10.50;97.20;;;;;;1721638;28;20209;-76
2022/04/25 05:03:13;;;;;;;22.98;20.88;;;10.50;97.20;;;;;;1722597;28;20228;-77
2022/04/25 05:04:05;;;;;;;23.80;21.75;;;10.50;97.20;;;;;;1727571;28;20213;-77
2022/04/25 05:04:56;;;;;;;25.23;22.92;;;10.50;97.20;;;;;;1727332;28;20247;-76
2022/04/25 05:05:48;;;;;;;23.80;21.73;;;10.50;97.20;;;;;;1721188;28;20664;-76
2022/04/25 05:06:39;;;;;;;23.88;21.67;;;10.50;97.20;;;;;;1721032;28;20205;-75
2022/04/25 05:07:30;;;;;;;25.50;23.17;;;10.50;97.20;;;;;;1720985;28;20205;-76
2022/04/25 05:08:21;;;;;;;25.02;22.75;;;10.50;97.20;;;;;;1722543;28;20197;-76
2022/04/25 05:09:13;;;;;;;26.00;23.70;;;10.50;97.20;;;;;;1724599;28;20193;-76
2022/04/25 05:10:06;;;;;;;26.00;23.65;;;10.50;97.20;;;;;;1727156;28;20235;-75
2022/04/25 05:10:57;;;;;;;24.77;22.48;;;10.50;97.20;;;;;;1726171;28;20258;-76
2022/04/25 05:11:48;;;;;;;26.58;24.13;;;10.60;97.20;;;;;;1721176;28;20683;-75
2022/04/25 05:12:48;;;;;;;25.30;23.00;;;10.60;97.20;;;;;;1725878;28;20196;-75
2022/04/25 05:13:39;;;;;;;26.10;23.80;;;10.60;97.20;;;;;;1722256;28;20209;-75
2022/04/25 05:14:31;;;;;;;26.47;24.07;;;10.60;97.20;;;;;;1729234;28;20193;-74
2022/04/25 05:15:22;;;;;;;25.80;23.50;;;10.60;97.20;;;;;;1732528;28;20224;-75
2022/04/25 05:16:15;;;;;;;25.08;22.83;;;10.60;97.20;;;;;;1730837;28;20195;-75
2022/04/25 05:17:06;;;;;;;25.50;23.20;;;10.60;97.20;;;;;;1731052;28;20206;-75
2022/04/25 05:18:00;;;;;;;25.70;23.40;;;10.60;97.20;;;;;;1732199;28;20684;-75
2022/04/25 05:18:51;;;;;;;27.10;24.60;;;10.70;97.20;;;;;;1727065;28;20707;-75
2022/04/25 05:19:43;;;;;;;25.10;22.80;;;10.70;97.20;;;;;;1727732;28;20706;-75
2022/04/25 05:20:34;;;;;;;24.70;22.48;;;10.70;97.20;;;;;;1727765;28;20207;-75
2022/04/25 05:21:25;;;;;;;24.37;22.20;;;10.70;97.20;;;;;;1727238;28;20199;-75
2022/04/25 05:22:16;;;;;;;24.80;22.70;;;10.70;97.20;;;;;;1724385;28;20554;-75
2022/04/25 05:23:10;;;;;;;25.67;23.33;;;10.80;97.20;;;;;;1721912;28;20220;-75
2022/04/25 05:24:00;;;;;;;25.90;23.45;;;10.80;97.20;;;;;;1727652;28;20515;-75
2022/04/25 05:24:52;;;;;;;27.17;24.57;;;10.80;97.20;;;;;;1727697;28;20199;-75
2022/04/25 05:25:43;;;;;;;25.42;23.02;;;10.80;97.20;;;;;;1727716;28;20606;-75
2022/04/25 05:26:35;;;;;;;26.27;23.87;;;10.90;97.20;;;;;;1727739;28;20227;-75
2022/04/25 05:27:25;;;;;;;25.52;23.23;;;10.90;97.20;;;;;;1722891;28;20283;-75
2022/04/25 05:28:17;;;;;;;25.20;23.00;;;10.90;97.20;;;;;;1724268;28;20197;-76
2022/04/25 05:29:08;;;;;;;26.08;23.73;;;10.90;97.20;;;;;;1725297;28;20201;-75
2022/04/25 05:30:00;;;;;;;25.80;23.50;;;10.90;97.20;;;;;;1727643;28;20291;-75
2022/04/25 05:30:51;;;;;;;25.25;22.95;;;11.00;97.20;;;;;;1722494;28;20448;-75
2022/04/25 05:31:44;;;;;;;26.40;23.90;;;11.00;97.20;;;;;;1724613;28;20193;-75
2022/04/25 05:32:47;;;;;;;24.45;22.25;;;11.10;97.20;;;;;;1726284;28;20563;-75
2022/04/25 05:33:39;;;;;;;25.95;23.55;;;11.10;97.20;;;;;;1724743;28;20208;-75
2022/04/25 05:34:30;;;;;;;27.30;24.88;;;11.10;97.20;;;;;;1727686;28;20659;-75
2022/04/25 05:35:23;;;;;;;25.80;23.50;;;11.10;97.20;;;;;;1723891;28;20201;-76
2022/04/25 05:36:15;;;;;;;25.60;23.25;;;11.20;97.20;;;;;;1720818;28;20281;-75
2022/04/25 05:37:05;;;;;;;25.63;23.35;;;11.20;97.20;;;;;;1727497;28;20211;-76
2022/04/25 05:37:57;;;;;;;26.07;23.77;;;11.20;97.20;;;;;;1727629;28;20211;-75
2022/04/25 05:38:48;;;;;;;24.65;22.55;;;11.20;97.20;;;;;;1727368;28;20570;-75
2022/04/25 05:39:40;;;;;;;25.73;23.43;;;11.30;97.20;;;;;;1727512;28;20291;-75
2022/04/25 05:40:31;;;;;;;27.50;24.90;;;11.30;97.20;;;;;;1727553;28;20703;-75
2022/04/25 05:41:23;;;;;;;26.60;24.23;;;11.30;97.20;;;;;;1727340;28;20573;-75
2022/04/25 05:42:14;;;;;;;26.08;23.70;;;11.30;97.20;;;;;;1727099;28;20451;-75
2022/04/25 05:43:07;;;;;;;25.20;23.00;;;11.30;97.20;;;;;;1721135;28;20221;-75
2022/04/25 05:43:58;;;;;;;24.48;22.25;;;11.40;97.20;;;;;;1727071;28;20517;-75
2022/04/25 05:44:50;;;;;;;25.97;23.77;;;11.40;97.20;;;;;;1727597;28;20201;-75
2022/04/25 05:45:46;;;;;;;24.90;22.70;;;11.40;97.20;;;;;;1727576;28;20443;-75
2022/04/25 05:46:37;;;;;;;26.30;23.90;;;11.40;97.20;;;;;;1727579;28;20259;-75
2022/04/25 05:47:31;;;;;;;25.23;22.90;;;11.50;97.20;;;;;;1727582;28;20196;-75
2022/04/25 05:51:58;;;;;;;25.23;23.02;;;11.60;97.20;;;;;;1727611;28;20222;-75
2022/04/25 05:52:50;;;;;;;27.13;24.63;;;11.60;97.20;;;;;;1720874;28;20201;-75
2022/04/25 05:53:41;;;;;;;25.50;23.00;;;11.70;97.20;;;;;;1725983;28;20682;-75
2022/04/25 05:54:33;;;;;;;25.63;23.43;;;11.70;97.20;;;;;;1727552;28;20695;-75
2022/04/25 05:55:24;;;;;;;25.40;23.08;;;11.80;97.20;;;;;;1725773;28;20201;-76
2022/04/25 05:56:16;;;;;;;26.23;23.83;;;11.80;97.20;;;;;;1727578;28;20208;-75
2022/04/25 05:57:07;;;;;;;26.15;23.75;;;11.90;97.20;;;;;;1727528;28;20958;-75
2022/04/25 05:58:00;;;;;;;24.40;22.20;;;11.90;97.20;;;;;;1727550;28;20582;-75
2022/04/25 05:58:50;;;;;;;25.60;23.38;;;11.90;97.20;;;;;;1720975;28;20193;-75
2022/04/25 05:59:42;;;;;;;25.93;23.67;;;12.00;97.20;;;;;;1720793;28;20197;-75
2022/04/25 06:00:33;;;;;;;24.83;22.58;;;12.00;97.20;;;;;;1720828;28;20285;-75
2022/04/25 06:01:25;;;;;;;26.38;23.98;;;12.00;97.20;;;;;;1720865;28;20200;-75
2022/04/25 06:02:17;;;;;;;23.50;21.58;;;12.00;97.20;;;;;;1720724;28;20237;-75
2022/04/25 06:03:10;;;;;;;25.52;23.23;;;12.10;97.20;;;;;;1721935;28;20220;-75
2022/04/25 06:04:01;;;;;;;26.75;24.45;;;12.10;97.20;;;;;;1723230;28;20205;-75
2022/04/25 06:04:52;;;;;;;23.87;21.57;;;12.20;97.20;;;;;;1725437;28;20228;-75
2022/04/25 06:05:45;;;;;;;26.23;23.83;;;12.20;97.20;;;;;;1722006;28;20447;-75
2022/04/25 06:06:36;;;;;;;24.65;22.55;;;12.20;97.20;;;;;;1721290;28;20240;-75
2022/04/25 06:07:27;;;;;;;26.20;23.80;;;12.30;97.20;;;;;;1727160;28;20250;-75
2022/04/25 06:08:19;;;;;;;25.33;23.00;;;12.30;97.20;;;;;;1726940;28;20211;-76
2022/04/25 06:09:09;;;;;;;25.38;22.88;;;12.40;97.20;;;;;;1727456;28;20202;-75
2022/04/25 06:10:02;;;;;;;25.97;23.67;;;12.40;97.20;;;;;;1727513;28;20200;-75
2022/04/25 06:10:52;;;;;;;26.13;23.92;;;12.50;97.20;;;;;;1727461;28;20201;-75
2022/04/25 06:11:45;;;;;;;26.23;23.80;;;12.60;97.20;;;;;;1727525;28;20281;-76
2022/04/25 06:12:39;;;;;;;25.90;23.58;;;12.60;97.20;;;;;;1727192;28;20197;-76
2022/04/25 06:13:30;;;;;;;25.63;23.25;;;12.70;97.20;;;;;;1727021;28;20258;-77
2022/04/25 06:14:21;;;;;;;26.33;24.02;;;12.80;97.20;;;;;;1721989;28;20216;-76
2022/04/25 06:15:13;;;;;;;27.03;24.63;;;12.90;97.20;;;;;;1721040;28;20212;-77
2022/04/25 06:16:05;;;;;;;26.70;24.33;;;13.00;97.20;;;;;;1727333;28;20917;-77
2022/04/25 06:16:57;;;;;;;25.95;23.75;;;13.00;97.20;;;;;;1724945;28;20213;-76
2022/04/25 06:17:48;;;;;;;27.10;24.70;;;13.10;97.20;;;;;;1727155;28;20200;-77
2022/04/25 06:18:41;;;;;;;26.90;24.30;;;13.20;97.20;;;;;;1723765;28;20643;-76
2022/04/25 06:19:32;;;;;;;25.67;23.38;;;13.20;97.20;;;;;;1726733;28;20203;-76
2022/04/25 06:20:25;;;;;;;27.27;24.75;;;13.20;97.20;;;;;;1726914;28;20250;-76
2022/04/25 06:21:16;;;;;;;28.65;26.05;;;13.30;97.20;;;;;;1726799;28;20347;-76
2022/04/25 06:22:09;;;;;;;27.70;25.30;;;13.30;97.20;;;;;;1727503;28;20248;-77
2022/04/25 06:23:02;;;;;;;26.13;23.73;;;13.30;97.20;;;;;;1727619;28;20270;-76
2022/04/25 06:23:54;;;;;;;26.83;24.42;;;13.30;97.20;;;;;;1727546;28;20526;-76
2022/04/25 06:24:44;;;;;;;27.48;25.08;;;13.30;97.20;;;;;;1728545;28;20204;-79
2022/04/25 06:25:37;;;;;;;28.50;25.90;;;13.40;97.20;;;;;;1728986;28;20203;-76
2022/04/25 06:26:29;;;;;;;27.40;24.95;;;13.40;97.20;;;;;;1728754;28;20262;-76
2022/04/25 06:27:21;;;;;;;26.98;24.45;;;13.40;97.20;;;;;;1727456;28;20223;-76
2022/04/25 06:28:12;;;;;;;27.25;24.85;;;13.40;97.20;;;;;;1727736;28;20706;-76
2022/04/25 06:29:03;;;;;;;28.60;25.80;;;13.40;97.20;;;;;;1727550;28;20594;-76
2022/04/25 06:29:54;;;;;;;26.67;24.30;;;13.40;97.20;;;;;;1727536;28;20247;-76
2022/04/25 06:30:46;;;;;;;26.50;24.10;;;13.40;97.20;;;;;;1722645;28;20193;-76
2022/04/25 06:31:36;;;;;;;27.10;24.60;;;13.40;97.20;;;;;;1720530;28;20212;-76
2022/04/25 06:32:28;;;;;;;24.77;22.63;;;13.50;97.20;;;;;;1720017;28;20207;-76
2022/04/25 06:33:19;;;;;;;26.20;23.80;;;13.50;97.20;;;;;;1720424;28;20236;-76
2022/04/25 06:34:12;;;;;;;26.60;24.20;;;13.50;97.20;;;;;;1720753;28;20208;-76
2022/04/25 06:35:03;;;;;;;26.58;24.17;;;13.50;97.20;;;;;;1720547;28;20255;-76
2022/04/25 06:35:55;;;;;;;28.17;25.67;;;13.60;97.20;;;;;;1720798;28;20201;-76
2022/04/25 06:36:45;;;;;;;26.52;24.02;;;13.60;97.20;;;;;;1720662;28;20217;-76
2022/04/25 06:37:37;;;;;;;26.83;24.40;;;13.60;97.20;;;;;;1720791;28;20201;-76
2022/04/25 06:38:28;;;;;;;26.88;24.52;;;13.60;97.20;;;;;;1720482;28;20209;-76
2022/04/25 06:39:20;;;;;;;27.27;24.67;;;13.60;97.20;;;;;;1720578;28;20201;-76
2022/04/25 06:40:11;;;;;;;27.45;24.95;;;13.60;97.20;;;;;;1721073;28;20243;-76
2022/04/25 06:41:03;;;;;;;26.95;24.55;;;13.60;97.20;;;;;;1727563;28;20262;-76
2022/04/25 06:41:54;;;;;;;28.35;25.75;;;13.60;97.20;;;;;;1727499;28;20201;-76
2022/04/25 06:42:46;;;;;;;27.47;24.77;;;13.60;97.20;;;;;;1727381;28;20200;-76
2022/04/25 06:43:37;;;;;;;26.73;24.17;;;13.70;97.20;;;;;;1727462;28;20246;-76
2022/04/25 06:44:30;;;;;;;26.50;24.20;;;13.70;97.20;;;;;;1727404;28;20228;-76
2022/04/25 06:45:21;;;;;;;26.30;23.88;;;13.70;97.20;;;;;;1727397;28;20339;-76
2022/04/25 06:46:12;;;;;;;27.60;24.90;;;13.70;97.20;;;;;;1727408;28;20204;-76
2022/04/25 06:47:04;;;;;;;24.70;22.50;;;13.70;97.20;;;;;;1727460;28;20986;-76
2022/04/25 06:47:55;;;;;;;28.20;25.60;;;13.70;97.20;;;;;;1727414;28;20196;-76
2022/04/25 06:49:54;;;;;;;24.63;22.50;;;13.80;97.20;;;;;;1727085;28;20209;-76
2022/04/25 06:50:45;;;;;;;25.92;23.63;;;13.80;97.20;;;;;;1722867;28;20197;-76
2022/04/25 06:51:37;;;;;;;27.10;24.50;;;13.90;97.20;;;;;;1720666;28;20197;-76
2022/04/25 06:52:27;;;;;;;27.38;25.00;;;13.90;97.20;;;;;;1720664;28;20703;-76
2022/04/25 06:53:19;;;;;;;25.10;22.87;;;14.00;97.20;;;;;;1720616;28;20589;-76
2022/04/25 06:54:10;;;;;;;28.48;25.83;;;14.10;97.20;;;;;;1720604;28;20208;-76
2022/04/25 06:55:04;;;;;;;26.03;23.53;;;14.20;97.20;;;;;;1720676;28;20255;-76
2022/04/25 06:55:55;;;;;;;27.92;25.33;;;14.20;97.20;;;;;;1720621;28;20223;-76
2022/04/25 06:56:46;;;;;;;27.27;24.77;;;14.20;97.20;;;;;;1720558;28;20194;-76
2022/04/25 06:57:38;;;;;;;25.40;23.10;;;14.30;97.20;;;;;;1720617;28;20699;-76
2022/04/25 06:58:29;;;;;;;26.13;23.63;;;14.30;97.20;;;;;;1720257;28;20224;-76
2022/04/25 06:59:21;;;;;;;25.83;23.52;;;14.30;97.20;;;;;;1720645;28;20201;-76
2022/04/25 07:00:17;;;;;;;25.75;23.35;;;14.30;97.20;;;;;;1720546;28;20637;-76
2022/04/25 07:01:08;;;;;;;24.85;22.45;;;14.30;97.20;;;;;;1720598;28;20212;-76
2022/04/25 07:02:00;;;;;;;25.27;22.87;;;14.30;97.20;;;;;;1720671;28;20280;-76
2022/04/25 07:02:51;;;;;;;25.27;22.77;;;14.20;97.20;;;;;;1720460;28;20217;-76
2022/04/25 07:03:42;;;;;;;25.43;23.13;;;14.20;97.20;;;;;;1720720;28;20280;-76
2022/04/25 07:04:33;;;;;;;24.95;22.65;;;14.10;97.20;;;;;;1720549;28;20315;-76
2022/04/25 07:05:26;;;;;;;25.40;23.10;;;14.10;97.20;;;;;;1724199;28;20200;-76
2022/04/25 07:06:17;;;;;;;25.27;23.08;;;14.10;97.20;;;;;;1727342;28;20235;-76
2022/04/25 07:07:09;;;;;;;27.30;24.37;;;14.00;97.20;;;;;;1727374;28;20208;-76
2022/04/25 07:08:00;;;;;;;25.05;22.52;;;14.00;97.20;;;;;;1727232;28;20208;-76
2022/04/25 07:08:52;;;;;;;26.93;24.53;;;14.00;97.20;;;;;;1727179;28;20192;-76
2022/04/25 07:09:42;;;;;;;25.73;23.42;;;14.00;97.20;;;;;;1727260;28;20209;-76
2022/04/25 07:10:34;;;;;;;26.87;24.40;;;14.00;97.20;;;;;;1727357;28;20291;-77
2022/04/25 07:11:25;;;;;;;25.00;22.80;;;14.00;97.20;;;;;;1727422;28;20235;-76
2022/04/25 07:12:16;;;;;;;26.90;24.50;;;14.00;97.20;;;;;;1727337;28;20204;-76
2022/04/25 07:13:07;;;;;;;27.27;24.83;;;14.10;97.20;;;;;;1727165;28;20274;-76
2022/04/25 07:13:59;;;;;;;25.07;22.67;;;14.10;97.20;;;;;;1727389;28;20200;-76
2022/04/25 07:14:50;;;;;;;23.73;21.63;;;14.10;97.20;;;;;;1727187;28;20252;-76
2022/04/25 07:15:42;;;;;;;24.67;22.47;;;14.10;97.20;;;;;;1720683;28;20209;-76
2022/04/25 07:16:32;;;;;;;24.35;22.17;;;14.10;97.20;;;;;;1720635;28;20653;-77
2022/04/25 07:17:24;;;;;;;24.60;22.40;;;14.10;97.20;;;;;;1720700;28;20782;-76
2022/04/25 07:18:15;;;;;;;25.05;22.83;;;14.20;97.20;;;;;;1720429;28;20213;-76
2022/04/25 07:19:07;;;;;;;24.37;22.07;;;14.20;97.20;;;;;;1720711;28;20758;-76
2022/04/25 07:19:57;;;;;;;24.88;22.63;;;14.20;97.20;;;;;;1720582;28;20495;-76
2022/04/25 07:20:50;;;;;;;23.80;21.70;;;14.30;97.20;;;;;;1720640;28;20335;-76
2022/04/25 07:28:53;;;;;;;25.35;23.17;;;14.40;97.20;;;;;;1727153;28;20200;-76
2022/04/25 07:29:47;;;;;;;25.45;23.05;;;14.50;97.20;;;;;;1727196;28;20208;-76
2022/04/25 07:30:39;;;;;;;25.98;23.70;;;14.70;97.20;;;;;;1727299;28;20197;-76
2022/04/25 07:31:30;;;;;;;25.90;23.60;;;14.90;97.20;;;;;;1727299;28;20215;-76
2022/04/25 07:32:22;;;;;;;25.88;23.40;;;15.00;97.20;;;;;;1727267;28;20200;-76
2022/04/25 07:33:13;;;;;;;25.58;23.27;;;15.20;97.20;;;;;;1727215;28;20250;-76
2022/04/25 07:34:05;;;;;;;24.77;22.60;;;15.30;97.20;;;;;;1727436;28;20208;-76
2022/04/25 07:34:55;;;;;;;27.33;24.83;;;15.50;97.20;;;;;;1726762;28;20239;-76
2022/04/25 07:35:47;;;;;;;24.73;22.43;;;15.70;97.20;;;;;;1720513;28;20197;-76
2022/04/25 07:36:39;;;;;;;25.50;23.10;;;15.90;97.20;;;;;;1720631;28;20620;-76
2022/04/25 07:37:33;;;;;;;25.10;22.80;;;16.00;97.20;;;;;;1720547;28;20201;-76
2022/04/25 07:38:24;;;;;;;24.95;22.85;;;16.10;97.20;;;;;;1720224;28;20213;-76
2022/04/25 07:39:15;;;;;;;24.55;22.30;;;16.20;97.20;;;;;;1721572;28;20671;-76
2022/04/25 07:40:08;;;;;;;24.48;22.38;;;16.30;97.20;;;;;;1722057;28;20259;-77
2022/04/25 07:41:00;;;;;;;25.27;22.83;;;16.40;97.20;;;;;;1722123;28;20240;-77
2022/04/25 07:41:51;;;;;;;24.00;21.88;;;16.40;97.20;;;;;;1721737;28;20201;-77
2022/04/25 07:42:43;;;;;;;24.40;21.90;;;16.40;97.20;;;;;;1721691;28;20208;-76
2022/04/25 07:43:34;;;;;;;23.83;21.77;;;16.40;97.20;;;;;;1721775;28;20240;-76
2022/04/25 07:44:26;;;;;;;24.05;21.85;;;16.30;97.20;;;;;;1721749;28;20340;-76
2022/04/25 07:45:17;;;;;;;25.83;23.45;;;16.30;97.20;;;;;;1724499;28;20209;-76
2022/04/25 07:46:08;;;;;;;23.57;21.23;;;16.20;97.20;;;;;;1728545;28;20287;-76
2022/04/25 07:46:59;;;;;;;22.90;20.88;;;16.10;97.20;;;;;;1728579;28;20205;-77
2022/04/25 07:47:51;;;;;;;22.20;20.30;;;16.00;97.20;;;;;;1728534;28;20192;-76
2022/04/25 07:48:42;;;;;;;23.10;21.00;;;15.90;97.20;;;;;;1728225;28;20262;-76
2022/04/25 07:49:34;;;;;;;22.80;20.90;;;15.80;97.20;;;;;;1728308;28;20660;-76
2022/04/25 07:50:25;;;;;;;22.08;19.95;;;15.70;97.20;;;;;;1728561;28;20571;-76
2022/04/25 07:51:17;;;;;;;21.60;19.60;;;15.60;97.20;;;;;;1728535;28;20543;-76
2022/04/25 07:52:09;;;;;;;21.73;19.70;;;15.50;97.20;;;;;;1728435;28;20201;-76
2022/04/25 07:53:01;;;;;;;22.05;20.02;;;15.40;97.20;;;;;;1728514;28;20251;-76
2022/04/25 07:53:52;;;;;;;22.23;20.17;;;15.30;97.20;;;;;;1728546;28;20287;-77
2022/04/25 07:54:43;;;;;;;20.50;18.70;;;15.20;97.20;;;;;;1728515;28;20663;-76
2022/04/25 07:55:34;;;;;;;20.88;19.05;;;15.20;97.20;;;;;;1723201;28;20571;-76
2022/04/25 07:56:26;;;;;;;22.93;20.83;;;15.10;97.20;;;;;;1721941;28;20560;-76
2022/04/25 07:57:17;;;;;;;23.52;21.45;;;15.10;97.20;;;;;;1721821;28;20677;-76
2022/04/25 07:58:08;;;;;;;21.93;20.00;;;15.10;97.20;;;;;;1721533;28;20561;-76
2022/04/25 07:59:00;;;;;;;23.40;21.30;;;15.10;97.20;;;;;;1721812;28;20236;-77
2022/04/25 07:59:51;;;;;;;24.30;22.08;;;15.10;97.20;;;;;;1721577;28;20259;-77
2022/04/25 08:00:43;;;;;;;22.75;20.65;;;15.10;97.20;;;;;;1721811;28;20220;-77
2022/04/25 08:01:34;;;;;;;22.45;20.35;;;15.10;97.20;;;;;;1721701;28;20261;-77
2022/04/25 08:02:26;;;;;;;25.87;23.07;;;15.10;97.20;;;;;;1721737;28;20201;-77
2022/04/25 08:03:16;;;;;;;24.80;22.50;;;15.10;97.20;;;;;;1721771;28;20597;-76
2022/04/25 08:04:08;;;;;;;23.60;21.40;;;15.10;97.20;;;;;;1721724;28;20197;-76
2022/04/25 08:04:59;;;;;;;24.58;22.38;;;15.10;97.20;;;;;;1721689;28;20256;-77
2022/04/25 08:05:51;;;;;;;24.30;21.97;;;15.10;97.20;;;;;;1728394;28;20203;-77
2022/04/25 08:06:41;;;;;;;23.85;21.75;;;15.20;97.20;;;;;;1728456;28;20446;-77
2022/04/25 08:07:36;;;;;;;23.33;21.13;;;15.20;97.20;;;;;;1728526;28;20206;-76
2022/04/25 08:08:27;;;;;;;22.45;20.50;;;15.10;97.20;;;;;;1728047;28;20209;-77
2022/04/25 08:09:18;;;;;;;23.87;21.67;;;15.10;97.20;;;;;;1728407;28;20205;-77
2022/04/25 08:10:09;;;;;;;23.38;21.05;;;15.10;97.20;;;;;;1728505;28;20663;-76
2022/04/25 08:11:01;;;;;;;23.80;21.77;;;15.10;97.20;;;;;;1728459;28;20572;-77
2022/04/25 08:17:56;;;;;;;22.50;20.60;;;15.00;97.20;;;;;;1728341;28;20706;-77
2022/04/25 08:18:51;;;;;;;23.60;21.48;;;14.60;97.20;;;;;;1721446;28;20220;-76
2022/04/25 08:19:43;;;;;;;22.48;20.48;;;14.60;97.20;;;;;;1721469;28;20231;-77
2022/04/25 08:20:35;;;;;;;23.15;21.23;;;14.60;97.20;;;;;;1721572;28;20225;-76
2022/04/25 08:21:27;;;;;;;24.42;22.23;;;14.50;97.20;;;;;;1721644;28;20261;-77
2022/04/25 08:22:18;;;;;;;23.60;21.40;;;14.50;97.20;;;;;;1721573;28;20208;-76
2022/04/25 08:23:13;;;;;;;23.10;21.30;;;14.50;97.20;;;;;;1721451;28;20283;-77
2022/04/25 08:24:04;;;;;;;24.05;21.70;;;14.40;97.20;;;;;;1721709;28;20212;-77
2022/04/25 08:24:56;;;;;;;24.45;22.15;;;14.40;97.20;;;;;;1721482;28;20711;-77
2022/04/25 08:25:47;;;;;;;22.92;20.92;;;14.40;97.20;;;;;;1726917;28;20193;-77
2022/04/25 08:26:39;;;;;;;23.92;21.70;;;14.40;97.20;;;;;;1728547;28;20680;-76
2022/04/25 08:27:30;;;;;;;22.80;20.80;;;14.40;97.20;;;;;;1728502;28;20695;-77
2022/04/25 08:28:22;;;;;;;22.70;20.50;;;14.40;97.20;;;;;;1728070;28;20679;-77
2022/04/25 08:29:12;;;;;;;23.15;20.95;;;14.40;97.20;;;;;;1728265;28;20208;-77
2022/04/25 08:30:05;;;;;;;23.80;21.50;;;14.50;97.20;;;;;;1728416;28;20211;-77
2022/04/25 08:30:56;;;;;;;22.98;20.95;;;14.50;97.20;;;;;;1728121;28;20240;-76
2022/04/25 08:31:47;;;;;;;25.23;22.70;;;14.60;97.20;;;;;;1728298;28;20197;-77
2022/04/25 08:32:38;;;;;;;24.23;21.95;;;14.60;97.20;;;;;;1728194;28;20200;-77
2022/04/25 08:33:31;;;;;;;24.85;22.73;;;14.70;97.20;;;;;;1728130;28;20201;-76
2022/04/25 08:34:23;;;;;;;26.13;23.83;;;14.80;97.20;;;;;;1727939;28;20671;-76
2022/04/25 08:35:14;;;;;;;25.30;22.88;;;14.80;97.20;;;;;;1727532;28;20653;-76
2022/04/25 08:36:05;;;;;;;24.77;22.50;;;14.90;97.20;;;;;;1721682;28;20201;-76
2022/04/25 08:36:57;;;;;;;23.97;21.87;;;15.00;97.20;;;;;;1721575;28;20284;-77
2022/04/25 08:37:48;;;;;;;24.48;22.33;;;15.10;97.20;;;;;;1721407;28;20197;-77
2022/04/25 08:38:43;;;;;;;25.85;23.30;;;15.20;97.20;;;;;;1721916;28;20193;-77
2022/04/25 08:39:34;;;;;;;24.13;22.02;;;15.30;97.20;;;;;;1727656;28;20216;-76
2022/04/25 08:40:26;;;;;;;24.42;22.17;;;15.40;97.20;;;;;;1727909;28;20197;-77
2022/04/25 08:41:21;;;;;;;22.73;20.80;;;15.50;97.20;;;;;;1727794;28;20234;-76
2022/04/25 08:42:13;;;;;;;25.55;23.23;;;15.60;97.20;;;;;;1727677;28;20259;-77
2022/04/25 08:43:07;;;;;;;24.10;21.90;;;15.70;97.20;;;;;;1724973;28;20680;-77
2022/04/25 08:43:58;;;;;;;24.23;22.02;;;15.80;97.20;;;;;;1727749;28;20274;-77
2022/04/25 08:44:52;;;;;;;22.85;20.83;;;15.90;97.20;;;;;;1727581;28;20197;-76
2022/04/25 08:45:45;;;;;;;23.02;20.92;;;16.00;97.20;;;;;;1725414;28;20201;-77
2022/04/25 08:46:39;;;;;;;24.40;22.27;;;16.20;97.20;;;;;;1727670;28;20656;-77
2022/04/25 08:47:35;;;;;;;24.60;22.40;;;16.50;97.20;;;;;;1727673;28;20636;-76
2022/04/25 08:48:27;;;;;;;22.92;20.83;;;16.70;97.20;;;;;;1725021;28;20208;-77
2022/04/25 08:49:19;;;;;;;22.92;20.83;;;16.80;97.20;;;;;;1727695;28;20208;-77
2022/04/25 08:50:10;;;;;;;21.67;19.77;;;17.00;97.20;;;;;;1727715;28;20208;-76
2022/04/25 08:51:02;;;;;;;22.83;20.83;;;17.10;97.20;;;;;;1727557;28;20587;-77
2022/04/25 08:51:58;;;;;;;21.45;19.60;;;17.20;97.20;;;;;;1727642;28;20188;-77
2022/04/25 08:52:52;;;;;;;23.67;21.58;;;17.30;97.20;;;;;;1727665;28;20193;-76
2022/04/25 08:53:45;;;;;;;22.48;20.48;;;17.40;97.20;;;;;;1727549;28;20235;-76
2022/04/25 08:54:37;;;;;;;22.67;20.67;;;17.40;97.20;;;;;;1727600;28;20733;-76
2022/04/25 08:55:27;;;;;;;21.05;19.20;;;17.40;97.20;;;;;;1726730;28;20264;-76
2022/04/25 08:56:22;;;;;;;22.33;20.33;;;17.40;97.20;;;;;;1727659;28;20193;-77
2022/04/25 08:57:16;;;;;;;21.45;19.55;;;17.40;97.20;;;;;;1727507;28;20444;-76
2022/04/25 08:58:08;;;;;;;23.17;21.17;;;17.40;97.20;;;;;;1724877;28;20246;-76
2022/04/25 08:58:59;;;;;;;21.35;19.50;;;17.30;97.20;;;;;;1727873;28;20660;-76
2022/04/25 08:59:53;;;;;;;22.25;20.20;;;17.30;97.20;;;;;;1727657;28;20247;-76
2022/04/25 09:00:44;;;;;;;22.10;20.20;;;17.30;97.20;;;;;;1727645;28;20253;-76
2022/04/25 09:01:39;;;;;;;21.77;19.98;;;17.30;97.20;;;;;;1727622;28;20189;-76
2022/04/25 09:02:30;;;;;;;21.63;19.65;;;17.20;97.20;;;;;;1727432;28;20219;-76
2022/04/25 09:03:22;;;;;;;22.35;20.42;;;17.20;97.20;;;;;;1727469;28;20338;-76
2022/04/25 09:04:13;;;;;;;21.85;19.88;;;17.10;97.20;;;;;;1727612;28;20549;-76
2022/04/25 09:05:05;;;;;;;22.43;20.43;;;17.10;97.20;;;;;;1724920;28;20218;-77
2022/04/25 09:05:58;;;;;;;21.42;19.38;;;17.10;97.20;;;;;;1726866;28;20200;-76
2022/04/25 09:06:51;;;;;;;21.60;19.70;;;17.10;97.20;;;;;;1727627;28;20613;-75
2022/04/25 09:07:42;;;;;;;21.38;19.27;;;17.10;97.20;;;;;;1727419;28;20256;-76
2022/04/25 09:08:34;;;;;;;21.45;19.60;;;17.10;97.20;;;;;;1727070;28;20580;-75
2022/04/25 09:09:26;;;;;;;22.27;20.27;;;17.00;97.20;;;;;;1724926;28;20204;-76
2022/04/25 09:10:20;;;;;;;22.23;20.23;;;17.00;97.20;;;;;;1727332;28;20636;-76
2022/04/25 09:12:21;;;;;;;20.08;18.38;;;16.90;97.20;;;;;;1727031;28;20284;-76
2022/04/25 09:13:13;;;;;;;20.65;18.73;;;16.90;97.20;;;;;;1727373;28;20271;-76
2022/04/25 09:14:05;;;;;;;20.38;18.58;;;16.80;97.20;;;;;;1724855;28;20246;-76
2022/04/25 09:14:57;;;;;;;20.30;18.55;;;16.80;97.20;;;;;;1727390;28;20197;-77
2022/04/25 09:15:48;;;;;;;20.85;19.05;;;16.80;97.20;;;;;;1727027;28;20251;-76
2022/04/25 09:16:40;;;;;;;21.53;19.63;;;16.80;97.20;;;;;;1727493;28;20196;-76
2022/04/25 09:17:31;;;;;;;19.35;17.65;;;16.70;97.20;;;;;;1727483;28;20200;-76
2022/04/25 09:18:22;;;;;;;20.40;18.50;;;16.70;97.20;;;;;;1727130;28;20197;-76
2022/04/25 09:19:14;;;;;;;20.63;18.88;;;16.70;97.20;;;;;;1727327;28;20939;-76
2022/04/25 09:20:07;;;;;;;19.77;17.98;;;16.70;97.20;;;;;;1724733;28;20219;-76
2022/04/25 09:21:03;;;;;;;20.70;18.98;;;16.60;97.20;;;;;;1727350;28;20683;-75
2022/04/25 09:21:55;;;;;;;21.30;19.40;;;16.60;97.20;;;;;;1727413;28;20263;-76
2022/04/25 09:22:47;;;;;;;20.80;19.00;;;16.60;97.20;;;;;;1727269;28;20200;-76
2022/04/25 09:23:37;;;;;;;22.40;20.50;;;16.60;97.20;;;;;;1727353;28;20228;-76
2022/04/25 09:24:32;;;;;;;21.50;19.70;;;16.50;97.20;;;;;;1727519;28;20195;-77
2022/04/25 09:25:23;;;;;;;21.88;20.08;;;16.50;97.20;;;;;;1727526;28;20197;-77
2022/04/25 09:26:16;;;;;;;20.90;19.07;;;16.50;97.20;;;;;;1727878;28;20208;-78
2022/04/25 09:27:12;;;;;;;20.75;18.95;;;16.50;97.20;;;;;;1727679;28;20490;-75
2022/04/25 09:28:09;;;;;;;20.58;18.75;;;16.40;97.20;;;;;;1727041;28;20576;-75
2022/04/25 09:29:00;;;;;;;19.05;17.33;;;16.40;97.20;;;;;;1727255;28;20232;-76
2022/04/25 09:29:52;;;;;;;19.80;18.00;;;16.40;97.20;;;;;;1727300;28;20200;-76
2022/04/25 09:30:56;;;;;;;20.25;18.42;;;16.40;97.20;;;;;;1727208;28;20262;-75
2022/04/25 09:31:48;;;;;;;19.50;17.77;;;16.40;97.20;;;;;;1725131;28;20216;-76
2022/04/25 09:32:39;;;;;;;20.05;18.25;;;16.40;97.20;;;;;;1727297;28;20196;-76
2022/04/25 09:33:31;;;;;;;20.60;18.80;;;16.40;97.20;;;;;;1727357;28;20192;-75
2022/04/25 09:35:32;;;;;;;19.77;17.98;;;16.50;97.20;;;;;;1724025;28;20571;-75
2022/04/25 09:36:23;;;;;;;18.60;16.98;;;16.60;97.20;;;;;;1724692;28;20196;-75
2022/04/25 09:37:15;;;;;;;19.70;18.00;;;16.70;97.20;;;;;;1727238;28;20240;-76
2022/04/25 09:38:09;;;;;;;20.10;18.30;;;16.70;97.20;;;;;;1726957;28;20196;-76
2022/04/25 09:39:00;;;;;;;20.95;19.15;;;16.70;97.20;;;;;;1727383;28;20211;-76
2022/04/25 09:40:03;;;;;;;19.83;18.02;;;16.80;97.20;;;;;;1727132;28;20197;-76
2022/04/25 09:40:55;;;;;;;20.02;18.33;;;17.00;97.20;;;;;;1725822;28;20207;-75
2022/04/25 09:41:48;;;;;;;19.70;17.90;;;17.20;97.20;;;;;;1727357;28;20192;-76
2022/04/25 09:42:39;;;;;;;19.05;17.48;;;17.40;97.20;;;;;;1727181;28;20193;-77
2022/04/25 09:43:32;;;;;;;18.90;17.20;;;17.60;97.20;;;;;;1726954;28;20199;-77
2022/04/25 09:44:23;;;;;;;20.20;18.50;;;17.80;97.20;;;;;;1726948;28;20443;-77